Time;durP1;ratioP1;P1;durP2;ratioP2;P2;SDS_P1;SDS_P2;PMS_P1;PMS_P2;Temp;Humidity;BMP_temperature;BMP_pressure;BME280_temperature;BME280_humidity;BME280_pressure;Samples;Min_cycle;Max_cycle;Signal;HPM_P1;HPM_P2
2022/07/18 00:02:11;;;;;;;3.40;2.90;;;17.00;99.90;;;;;;5035248;28;20653;-58
2022/07/18 00:04:39;;;;;;;3.67;3.33;;;16.90;99.90;;;;;;5035295;28;20229;-58
2022/07/18 00:07:10;;;;;;;4.97;3.37;;;16.90;99.90;;;;;;5035528;28;20217;-59
2022/07/18 00:09:40;;;;;;;3.97;3.00;;;17.00;99.90;;;;;;5035616;28;20225;-59
2022/07/18 00:12:10;;;;;;;3.37;3.07;;;17.00;99.90;;;;;;5035668;28;20220;-59
2022/07/18 00:14:38;;;;;;;5.10;2.90;;;17.00;99.90;;;;;;5034750;28;20231;-59
2022/07/18 00:17:07;;;;;;;4.03;2.70;;;17.00;99.90;;;;;;5034676;28;20581;-59
2022/07/18 00:19:36;;;;;;;3.33;2.80;;;16.90;99.90;;;;;;5035287;28;20252;-60
2022/07/18 00:22:05;;;;;;;2.87;2.60;;;16.80;99.90;;;;;;5035217;28;20271;-59
2022/07/18 00:24:34;;;;;;;4.47;2.90;;;16.80;99.90;;;;;;5035237;28;20228;-58
2022/07/18 00:27:04;;;;;;;4.37;2.43;;;16.80;99.90;;;;;;5035202;28;20222;-59
2022/07/18 00:29:32;;;;;;;3.93;2.70;;;16.80;99.90;;;;;;5036143;28;20309;-58
2022/07/18 00:32:00;;;;;;;3.93;2.97;;;16.70;99.90;;;;;;5033345;28;20248;-59
2022/07/18 00:34:28;;;;;;;4.50;2.87;;;16.70;99.90;;;;;;5034832;28;20263;-58
2022/07/18 00:36:57;;;;;;;4.27;3.10;;;16.70;99.90;;;;;;5034931;28;20618;-59
2022/07/18 00:39:25;;;;;;;3.70;2.53;;;16.70;99.90;;;;;;5034668;28;20229;-57
2022/07/18 00:41:53;;;;;;;4.00;2.97;;;16.60;99.90;;;;;;5035092;28;20255;-59
2022/07/18 00:44:25;;;;;;;4.37;2.87;;;16.60;99.90;;;;;;5034509;28;20709;-59
2022/07/18 00:46:55;;;;;;;3.60;2.97;;;16.60;99.90;;;;;;5034611;28;20256;-59
2022/07/18 00:49:24;;;;;;;4.07;2.53;;;16.60;99.90;;;;;;5035041;28;20696;-59
2022/07/18 00:51:52;;;;;;;2.60;2.40;;;16.50;99.90;;;;;;5034707;28;20248;-59
2022/07/18 00:54:21;;;;;;;3.90;2.70;;;16.50;99.90;;;;;;5034939;28;20652;-58
2022/07/18 00:56:50;;;;;;;3.97;2.80;;;16.50;99.90;;;;;;5034680;28;20908;-59
2022/07/18 00:59:19;;;;;;;3.10;2.53;;;16.50;99.90;;;;;;5034337;28;20312;-59
2022/07/18 01:01:47;;;;;;;3.00;2.40;;;16.50;99.90;;;;;;5033905;28;20273;-59
2022/07/18 01:04:19;;;;;;;2.43;2.10;;;16.50;99.90;;;;;;5034533;28;20263;-59
2022/07/18 01:06:48;;;;;;;3.30;2.53;;;16.40;99.90;;;;;;5034241;28;20239;-59
2022/07/18 01:09:18;;;;;;;2.73;2.10;;;16.40;99.90;;;;;;5034296;28;20332;-59
2022/07/18 01:11:47;;;;;;;3.70;2.37;;;16.40;99.90;;;;;;5034517;28;20303;-59
2022/07/18 01:14:16;;;;;;;2.53;2.33;;;16.40;99.90;;;;;;5034117;28;20235;-59
2022/07/18 01:16:44;;;;;;;2.50;2.30;;;16.40;99.90;;;;;;5034077;28;20260;-59
2022/07/18 01:19:13;;;;;;;3.67;2.80;;;16.40;99.90;;;;;;5034330;28;20224;-57
2022/07/18 01:21:43;;;;;;;3.53;2.30;;;16.40;99.90;;;;;;5033560;28;20225;-59
2022/07/18 01:24:11;;;;;;;2.60;2.20;;;16.40;99.90;;;;;;5034069;28;20248;-59
2022/07/18 01:26:40;;;;;;;3.00;2.20;;;16.40;99.90;;;;;;5033963;28;20232;-59
2022/07/18 01:29:08;;;;;;;4.47;2.67;;;16.40;99.90;;;;;;5033032;28;20225;-59
2022/07/18 01:31:36;;;;;;;4.00;3.60;;;16.30;99.90;;;;;;5033460;28;20347;-59
2022/07/18 01:34:04;;;;;;;3.37;2.80;;;16.30;99.90;;;;;;5033848;28;20244;-58
2022/07/18 01:36:33;;;;;;;4.10;3.10;;;16.30;99.90;;;;;;5033759;28;20220;-58
2022/07/18 01:39:03;;;;;;;3.57;3.03;;;16.30;99.90;;;;;;5033739;28;20260;-59
2022/07/18 01:41:31;;;;;;;3.50;3.00;;;16.30;99.90;;;;;;5033954;28;20728;-58
2022/07/18 01:43:59;;;;;;;4.90;3.30;;;16.30;99.90;;;;;;5033547;28;20252;-59
2022/07/18 01:46:27;;;;;;;4.87;3.20;;;16.30;99.90;;;;;;5033725;28;20282;-59
2022/07/18 01:48:56;;;;;;;3.37;2.97;;;16.30;99.90;;;;;;5033606;28;20228;-59
2022/07/18 01:51:24;;;;;;;4.00;3.17;;;16.30;99.90;;;;;;5033464;28;20290;-57
2022/07/18 01:53:58;;;;;;;3.53;3.20;;;16.20;99.90;;;;;;5033792;28;20235;-58
2022/07/18 01:56:27;;;;;;;5.83;3.30;;;16.30;99.90;;;;;;5033522;28;20230;-59
2022/07/18 01:58:56;;;;;;;3.70;3.37;;;16.20;99.90;;;;;;5027746;28;20235;-59
2022/07/18 02:01:24;;;;;;;3.40;3.10;;;16.20;99.90;;;;;;5032572;28;20235;-59
2022/07/18 02:03:53;;;;;;;3.70;3.40;;;16.20;99.90;;;;;;5033072;28;20224;-59
2022/07/18 02:06:21;;;;;;;3.70;3.30;;;16.20;99.90;;;;;;5033233;28;20231;-59
2022/07/18 02:08:49;;;;;;;3.80;3.40;;;16.20;99.90;;;;;;5032933;28;20283;-59
2022/07/18 02:11:17;;;;;;;3.67;3.30;;;16.20;99.90;;;;;;5033717;28;20774;-59
2022/07/18 02:13:47;;;;;;;6.60;3.20;;;16.20;99.90;;;;;;5033160;28;20240;-59
2022/07/18 02:16:15;;;;;;;3.53;3.23;;;16.20;99.90;;;;;;5033120;28;20232;-59
2022/07/18 02:18:44;;;;;;;5.67;3.57;;;16.20;99.90;;;;;;5032930;28;20232;-59
2022/07/18 02:21:13;;;;;;;5.97;3.40;;;16.20;99.90;;;;;;5032110;28;20661;-59
2022/07/18 02:23:42;;;;;;;4.03;3.10;;;16.20;99.90;;;;;;5033164;28;20228;-59
2022/07/18 02:26:12;;;;;;;4.80;3.47;;;16.20;99.90;;;;;;5033334;28;20619;-59
2022/07/18 02:28:40;;;;;;;5.00;3.57;;;16.20;99.90;;;;;;5032872;28;20319;-59
2022/07/18 02:31:10;;;;;;;6.60;3.43;;;16.20;99.90;;;;;;5034751;28;20322;-59
2022/07/18 02:33:38;;;;;;;5.10;4.03;;;16.20;99.90;;;;;;5031129;28;20274;-59
2022/07/18 02:36:06;;;;;;;4.50;3.40;;;16.20;99.90;;;;;;5032774;28;20311;-59
2022/07/18 02:38:34;;;;;;;4.57;3.67;;;16.10;99.90;;;;;;5032971;28;20744;-59
2022/07/18 02:41:02;;;;;;;4.20;3.80;;;16.10;99.90;;;;;;5032176;28;20228;-59
2022/07/18 02:43:30;;;;;;;3.60;3.30;;;16.10;99.90;;;;;;5040898;28;20221;-59
2022/07/18 02:45:59;;;;;;;4.30;3.90;;;16.10;99.90;;;;;;5032639;28;20698;-59
2022/07/18 02:48:28;;;;;;;4.47;3.90;;;16.00;99.90;;;;;;5032496;28;20240;-59
2022/07/18 02:50:56;;;;;;;5.30;3.90;;;16.00;99.90;;;;;;5032654;28;20723;-59
2022/07/18 02:53:24;;;;;;;4.10;3.50;;;16.00;99.90;;;;;;5032603;28;20231;-59
2022/07/18 02:55:53;;;;;;;4.13;3.60;;;16.00;99.90;;;;;;5032913;28;20719;-59
2022/07/18 02:58:21;;;;;;;3.63;3.30;;;15.90;99.90;;;;;;5032821;28;20580;-59
2022/07/18 03:00:49;;;;;;;5.50;4.03;;;15.90;99.90;;;;;;5031800;28;20633;-59
2022/07/18 03:03:17;;;;;;;6.10;4.27;;;16.00;99.90;;;;;;5032458;28;20227;-59
2022/07/18 03:05:47;;;;;;;4.83;4.20;;;16.00;99.90;;;;;;5032223;28;20246;-59
2022/07/18 03:08:15;;;;;;;5.30;3.93;;;15.90;99.90;;;;;;5032870;28;20225;-59
2022/07/18 03:10:43;;;;;;;4.40;4.00;;;15.90;99.90;;;;;;5032318;28;20365;-58
2022/07/18 03:13:12;;;;;;;5.37;4.30;;;15.90;99.90;;;;;;5032211;28;20688;-58
2022/07/18 03:15:41;;;;;;;5.90;4.07;;;15.90;99.90;;;;;;5031941;28;20232;-59
2022/07/18 03:18:09;;;;;;;4.87;4.33;;;15.90;99.90;;;;;;5032403;28;20311;-59
2022/07/18 03:20:37;;;;;;;4.77;3.73;;;15.90;99.90;;;;;;5032520;28;20228;-58
2022/07/18 03:23:08;;;;;;;4.50;4.00;;;15.90;99.90;;;;;;5032361;28;20221;-59
2022/07/18 03:25:36;;;;;;;4.47;4.07;;;15.90;99.90;;;;;;5032331;28;20263;-58
2022/07/18 03:28:05;;;;;;;6.80;4.50;;;15.80;99.90;;;;;;5032245;28;20728;-59
2022/07/18 03:30:33;;;;;;;4.57;3.90;;;15.80;99.90;;;;;;5030984;28;20731;-59
2022/07/18 03:33:01;;;;;;;4.97;4.47;;;15.80;99.90;;;;;;5032367;28;20260;-59
2022/07/18 03:35:33;;;;;;;5.03;4.50;;;15.80;99.90;;;;;;5032003;28;20233;-59
2022/07/18 03:38:02;;;;;;;5.03;4.30;;;15.80;99.90;;;;;;5032207;28;20261;-59
2022/07/18 03:40:31;;;;;;;5.40;4.10;;;15.80;99.90;;;;;;5031830;28;20580;-59
2022/07/18 03:42:59;;;;;;;4.67;4.17;;;15.80;99.90;;;;;;5027799;28;20252;-59
2022/07/18 03:45:27;;;;;;;5.87;4.40;;;15.80;99.90;;;;;;5031028;28;20263;-59
2022/07/18 03:47:56;;;;;;;6.63;4.50;;;15.80;99.90;;;;;;5031881;28;20579;-59
2022/07/18 03:50:24;;;;;;;4.70;4.20;;;15.70;99.90;;;;;;5032310;28;20261;-59
2022/07/18 03:52:52;;;;;;;6.13;4.30;;;15.80;99.90;;;;;;5034883;28;20251;-57
2022/07/18 03:55:21;;;;;;;4.93;4.33;;;15.80;99.90;;;;;;5035809;28;20255;-58
2022/07/18 03:57:50;;;;;;;5.20;4.20;;;15.70;99.90;;;;;;5035432;28;20220;-59
2022/07/18 04:00:18;;;;;;;5.63;4.70;;;15.70;99.90;;;;;;5035240;28;20227;-59
2022/07/18 04:02:48;;;;;;;7.10;4.70;;;15.70;99.90;;;;;;5035381;28;20229;-59
2022/07/18 04:05:17;;;;;;;6.20;4.60;;;15.70;99.90;;;;;;5035872;28;20259;-59
2022/07/18 04:07:45;;;;;;;4.23;3.80;;;15.80;99.90;;;;;;5035230;28;20268;-59
2022/07/18 04:10:14;;;;;;;5.93;4.63;;;15.70;99.90;;;;;;5035758;28;20263;-59
2022/07/18 04:12:46;;;;;;;4.90;4.40;;;15.70;99.90;;;;;;5035041;28;20217;-59
2022/07/18 04:15:15;;;;;;;6.23;4.17;;;15.80;99.90;;;;;;5035380;28;20267;-59
2022/07/18 04:17:43;;;;;;;5.57;5.00;;;15.80;99.90;;;;;;5035231;28;20747;-58
2022/07/18 04:20:13;;;;;;;5.30;4.33;;;15.80;99.90;;;;;;5035298;28;20217;-58
2022/07/18 04:22:49;;;;;;;4.93;4.43;;;15.80;99.90;;;;;;5038479;28;20307;-59
2022/07/18 04:25:18;;;;;;;5.40;4.60;;;15.80;99.90;;;;;;5035036;28;20224;-58
2022/07/18 04:27:47;;;;;;;5.77;4.63;;;15.90;99.90;;;;;;5034062;28;20231;-59
2022/07/18 04:30:19;;;;;;;5.60;5.00;;;16.00;99.90;;;;;;5034568;28;20300;-59
2022/07/18 04:32:48;;;;;;;5.27;4.77;;;16.10;99.90;;;;;;5034904;28;20232;-59
2022/07/18 04:35:21;;;;;;;4.87;4.43;;;16.20;99.90;;;;;;5035030;28;20224;-59
2022/07/18 04:37:50;;;;;;;5.23;4.60;;;16.30;99.90;;;;;;5035125;28;20324;-59
2022/07/18 04:40:18;;;;;;;4.83;4.37;;;16.40;99.90;;;;;;5035015;28;20252;-59
2022/07/18 04:42:46;;;;;;;5.13;4.50;;;16.50;99.90;;;;;;5034685;28;20236;-58
2022/07/18 04:45:15;;;;;;;5.30;4.80;;;16.50;99.90;;;;;;5034776;28;20280;-59
2022/07/18 04:47:44;;;;;;;4.70;4.20;;;16.60;99.90;;;;;;5034640;28;20340;-59
2022/07/18 04:50:12;;;;;;;5.90;4.43;;;16.70;99.90;;;;;;5042211;28;20580;-59
2022/07/18 04:52:42;;;;;;;5.80;4.60;;;16.70;99.90;;;;;;5034227;28;20588;-59
2022/07/18 04:55:12;;;;;;;6.20;4.87;;;16.70;99.90;;;;;;5034950;28;20233;-58
2022/07/18 04:57:40;;;;;;;4.73;4.27;;;16.70;99.90;;;;;;5034455;28;20264;-59
2022/07/18 05:00:11;;;;;;;5.60;4.50;;;16.80;99.90;;;;;;5033879;28;20228;-58
2022/07/18 05:02:41;;;;;;;6.60;5.30;;;16.80;99.90;;;;;;5025832;28;20763;-59
2022/07/18 05:05:12;;;;;;;6.53;4.77;;;16.70;99.90;;;;;;5034813;28;20252;-58
2022/07/18 05:07:41;;;;;;;6.73;4.50;;;16.70;99.90;;;;;;5034454;28;20608;-58
2022/07/18 05:10:10;;;;;;;4.50;4.10;;;16.70;99.90;;;;;;5034516;28;20627;-59
2022/07/18 05:12:40;;;;;;;7.07;4.50;;;16.60;99.90;;;;;;5034194;28;20248;-58
2022/07/18 05:15:10;;;;;;;5.73;4.47;;;16.60;99.90;;;;;;5034477;28;20688;-58
2022/07/18 05:17:39;;;;;;;6.40;4.67;;;16.70;99.90;;;;;;5032284;28;20267;-57
2022/07/18 05:20:12;;;;;;;6.53;4.67;;;16.70;99.90;;;;;;5029268;28;20651;-59
2022/07/18 05:22:40;;;;;;;6.23;4.67;;;16.70;99.90;;;;;;5014132;28;20256;-59
2022/07/18 05:25:10;;;;;;;6.27;5.00;;;16.70;99.90;;;;;;5021425;28;20714;-59
2022/07/18 05:27:39;;;;;;;7.90;5.30;;;16.90;99.90;;;;;;5034560;28;20299;-59
2022/07/18 05:30:10;;;;;;;7.97;5.03;;;17.10;99.90;;;;;;5033514;28;20647;-59
2022/07/18 05:32:39;;;;;;;6.67;5.03;;;17.30;99.90;;;;;;5033290;28;20225;-59
2022/07/18 05:35:08;;;;;;;7.07;4.60;;;17.60;99.90;;;;;;5034114;28;20299;-59
2022/07/18 05:37:38;;;;;;;6.63;4.93;;;17.90;99.90;;;;;;5033442;28;20263;-59
2022/07/18 05:40:09;;;;;;;5.90;4.53;;;18.30;99.90;;;;;;5033966;28;20300;-59
2022/07/18 05:42:37;;;;;;;5.27;3.90;;;18.50;99.90;;;;;;5032599;28;20232;-60
2022/07/18 05:45:23;;;;;;;6.90;4.10;;;18.80;99.90;;;;;;5032369;28;20237;-60
2022/07/18 05:47:53;;;;;;;5.43;4.27;;;19.20;99.90;;;;;;5032886;28;20225;-60
2022/07/18 05:50:22;;;;;;;4.77;4.27;;;19.50;99.90;;;;;;5030640;28;20257;-60
2022/07/18 05:52:52;;;;;;;5.13;3.97;;;19.90;99.90;;;;;;5030010;28;20673;-60
2022/07/18 05:55:21;;;;;;;5.67;3.90;;;20.10;99.90;;;;;;5026221;28;20255;-60
2022/07/18 05:57:50;;;;;;;6.87;4.00;;;19.80;99.90;;;;;;5035511;28;20321;-60
2022/07/18 06:00:20;;;;;;;5.20;3.83;;;19.70;99.90;;;;;;5030803;28;20876;-60
2022/07/18 06:02:48;;;;;;;6.53;3.93;;;19.50;99.90;;;;;;5026796;28;20322;-60
2022/07/18 06:05:17;;;;;;;4.13;3.73;;;19.30;99.90;;;;;;5034905;28;20699;-60
2022/07/18 06:07:54;;;;;;;5.63;4.30;;;19.20;99.90;;;;;;5035147;28;20231;-60
2022/07/18 06:10:24;;;;;;;4.87;3.97;;;19.10;99.90;;;;;;5032993;28;20749;-60
2022/07/18 06:12:52;;;;;;;5.40;3.73;;;19.40;99.90;;;;;;5033141;28;20234;-58
2022/07/18 06:15:21;;;;;;;4.63;3.97;;;19.80;99.90;;;;;;5029913;28;20317;-60
2022/07/18 06:17:49;;;;;;;4.60;3.53;;;20.60;99.90;;;;;;5032168;28;20560;-60
2022/07/18 06:20:18;;;;;;;5.10;3.80;;;20.60;99.90;;;;;;5032484;28;20788;-60
2022/07/18 06:22:46;;;;;;;4.17;3.23;;;20.80;99.90;;;;;;5036311;28;20246;-61
2022/07/18 06:25:16;;;;;;;4.20;3.23;;;21.20;99.90;;;;;;5030776;28;20320;-61
2022/07/18 06:27:44;;;;;;;5.03;3.17;;;21.70;99.90;;;;;;5035642;28;20267;-61
2022/07/18 06:30:13;;;;;;;4.37;3.80;;;21.90;99.90;;;;;;5033586;28;20248;-61
2022/07/18 06:32:41;;;;;;;4.57;3.27;;;21.90;99.90;;;;;;5030564;28;20221;-61
2022/07/18 06:35:10;;;;;;;4.23;3.57;;;21.70;99.90;;;;;;5030932;28;20319;-61
2022/07/18 06:37:38;;;;;;;4.27;3.37;;;21.50;99.90;;;;;;5032317;28;20583;-61
2022/07/18 06:40:08;;;;;;;7.30;3.53;;;21.50;99.90;;;;;;5037899;28;20289;-61
2022/07/18 06:42:37;;;;;;;4.00;3.33;;;21.50;99.90;;;;;;5030809;28;20779;-61
2022/07/18 06:45:07;;;;;;;4.73;3.30;;;21.50;99.90;;;;;;5031578;28;20226;-60
2022/07/18 06:47:41;;;;;;;4.80;3.10;;;21.70;99.90;;;;;;5031395;28;20695;-61
2022/07/18 06:50:10;;;;;;;3.50;2.70;;;22.10;99.90;;;;;;5026961;28;20241;-62
2022/07/18 06:52:39;;;;;;;4.73;2.90;;;22.30;99.90;;;;;;5027048;28;20691;-62
2022/07/18 06:55:09;;;;;;;5.40;3.40;;;22.20;99.90;;;;;;5029679;28;20289;-62
2022/07/18 06:57:39;;;;;;;4.67;2.97;;;22.20;99.90;;;;;;5023914;28;20244;-62
2022/07/18 07:00:10;;;;;;;3.77;2.73;;;22.40;99.90;;;;;;5032082;28;20267;-62
2022/07/18 07:02:42;;;;;;;3.93;3.10;;;22.70;99.90;;;;;;5028111;28;20239;-62
2022/07/18 07:05:11;;;;;;;5.27;2.80;;;22.60;99.90;;;;;;5031973;28;20696;-62
2022/07/18 07:07:40;;;;;;;6.03;3.33;;;22.60;99.90;;;;;;5036767;28;20714;-62
2022/07/18 07:10:15;;;;;;;4.43;2.70;;;22.40;99.90;;;;;;5033548;28;20314;-62
2022/07/18 07:12:47;;;;;;;6.17;2.93;;;22.20;99.90;;;;;;5037245;28;20227;-62
2022/07/18 07:15:18;;;;;;;3.97;2.83;;;21.90;99.90;;;;;;5033417;28;20310;-62
2022/07/18 07:17:46;;;;;;;3.10;2.80;;;21.80;99.90;;;;;;5035120;28;20308;-62
2022/07/18 07:20:14;;;;;;;3.73;2.93;;;22.00;99.90;;;;;;5032275;28;20767;-62
2022/07/18 07:22:44;;;;;;;4.40;3.00;;;22.60;99.90;;;;;;5032689;28;20232;-62
2022/07/18 07:25:13;;;;;;;5.00;2.70;;;22.70;99.90;;;;;;5030123;28;20311;-62
2022/07/18 07:27:41;;;;;;;2.70;2.03;;;22.80;99.90;;;;;;5046726;28;20251;-62
2022/07/18 07:30:13;;;;;;;5.03;2.30;;;22.80;99.90;;;;;;5035084;28;20228;-62
2022/07/18 07:32:43;;;;;;;4.23;2.60;;;23.00;99.90;;;;;;5029893;28;20258;-62
2022/07/18 07:35:13;;;;;;;3.43;2.50;;;23.00;99.90;;;;;;5032691;28;20298;-62
2022/07/18 07:37:43;;;;;;;3.50;2.37;;;23.10;99.90;;;;;;5031560;28;20231;-62
2022/07/18 07:40:12;;;;;;;3.77;2.50;;;23.30;99.90;;;;;;5047932;28;20228;-62
2022/07/18 07:42:40;;;;;;;4.87;2.67;;;23.70;99.90;;;;;;5045137;28;20314;-63
2022/07/18 07:45:11;;;;;;;3.87;2.33;;;24.20;99.90;;;;;;5032016;28;20315;-63
2022/07/18 07:47:39;;;;;;;3.67;2.30;;;24.50;99.90;;;;;;5031013;28;20286;-63
2022/07/18 07:50:09;;;;;;;2.47;2.00;;;24.80;99.90;;;;;;5032812;28;20232;-63
2022/07/18 07:52:38;;;;;;;2.70;2.10;;;24.90;99.90;;;;;;5029095;28;20341;-63
2022/07/18 07:55:10;;;;;;;4.57;2.10;;;24.80;99.90;;;;;;5042906;28;20696;-63
2022/07/18 07:58:07;;;;;;;5.23;2.20;;;24.70;99.90;;;;;;5033919;28;20588;-63
2022/07/18 08:00:37;;;;;;;4.47;2.07;;;24.80;99.90;;;;;;5034115;28;20237;-64
2022/07/18 08:03:07;;;;;;;4.77;2.27;;;24.70;99.90;;;;;;5034800;28;20276;-64
2022/07/18 08:05:39;;;;;;;3.47;2.13;;;24.80;99.90;;;;;;5039494;28;20677;-64
2022/07/18 08:08:07;;;;;;;5.90;2.43;;;24.90;99.90;;;;;;5034147;28;20237;-63
2022/07/18 08:10:35;;;;;;;3.27;2.10;;;25.00;99.90;;;;;;5033657;28;20260;-64
2022/07/18 08:13:12;;;;;;;7.00;2.70;;;25.20;99.90;;;;;;5036501;28;20239;-64
2022/07/18 08:15:41;;;;;;;2.77;1.90;;;25.30;99.90;;;;;;5044609;28;20703;-64
2022/07/18 08:18:09;;;;;;;3.53;2.20;;;25.50;99.90;;;;;;5052589;28;20638;-64
2022/07/18 08:20:38;;;;;;;3.57;1.87;;;25.70;99.90;;;;;;5039720;28;20280;-64
2022/07/18 08:23:08;;;;;;;3.70;2.07;;;25.90;99.90;;;;;;5044350;28;20624;-64
2022/07/18 08:25:42;;;;;;;4.20;2.00;;;26.20;99.90;;;;;;5035036;28;20221;-64
2022/07/18 08:28:11;;;;;;;3.07;1.93;;;26.30;99.90;;;;;;5040512;28;20261;-64
2022/07/18 08:30:41;;;;;;;3.20;1.93;;;26.10;99.90;;;;;;5039299;28;20236;-65
2022/07/18 08:33:10;;;;;;;3.43;1.73;;;26.10;99.90;;;;;;5028994;28;20588;-65
2022/07/18 08:35:38;;;;;;;2.87;1.90;;;26.10;99.90;;;;;;5042574;28;20221;-64
2022/07/18 08:38:07;;;;;;;4.13;1.70;;;26.20;99.90;;;;;;5039636;28;20326;-65
2022/07/18 08:40:35;;;;;;;4.77;2.10;;;25.90;99.90;;;;;;5037405;28;20222;-65
2022/07/18 08:43:03;;;;;;;2.53;1.60;;;25.80;99.90;;;;;;5041866;28;20623;-65
2022/07/18 08:45:55;;;;;;;4.43;1.73;;;26.00;99.90;;;;;;5033385;28;20258;-65
2022/07/18 08:48:24;;;;;;;3.57;1.87;;;26.30;99.90;;;;;;5042377;28;20613;-65
2022/07/18 08:50:52;;;;;;;4.53;1.90;;;26.30;99.90;;;;;;5042000;28;20243;-65
2022/07/18 08:53:20;;;;;;;2.07;1.43;;;26.40;99.90;;;;;;5040495;28;20257;-65
2022/07/18 08:55:49;;;;;;;3.23;2.07;;;26.60;99.90;;;;;;5050371;28;20226;-65
2022/07/18 08:58:18;;;;;;;2.60;1.80;;;27.20;99.90;;;;;;5050147;28;20299;-65
2022/07/18 09:01:44;;;;;;;2.83;2.23;;;27.30;99.90;;;;;;5042448;28;20599;-66
2022/07/18 09:04:19;;;;;;;4.70;2.13;;;27.50;99.90;;;;;;5050409;28;20251;-66
2022/07/18 09:06:50;;;;;;;4.57;2.17;;;27.60;99.90;;;;;;5034116;28;20607;-66
2022/07/18 09:09:18;;;;;;;3.97;2.00;;;27.80;99.90;;;;;;5042366;28;20234;-67
2022/07/18 09:11:54;;;;;;;4.27;2.23;;;27.80;99.90;;;;;;5040349;28;20235;-67
2022/07/18 09:14:38;;;;;;;5.13;2.23;;;27.80;99.90;;;;;;5039208;28;20227;-67
2022/07/18 09:17:10;;;;;;;3.50;2.03;;;27.60;99.90;;;;;;5043932;28;20642;-67
2022/07/18 09:19:40;;;;;;;5.87;2.20;;;27.90;99.90;;;;;;5043209;28;20234;-67
2022/07/18 09:22:14;;;;;;;4.13;2.00;;;28.20;99.90;;;;;;5043992;28;20587;-67
2022/07/18 09:25:01;;;;;;;4.47;1.90;;;28.50;99.90;;;;;;5048885;28;20318;-67
2022/07/18 09:27:36;;;;;;;3.03;2.27;;;29.00;99.90;;;;;;5048259;28;20229;-68
2022/07/18 09:30:26;;;;;;;3.87;2.37;;;29.30;99.90;;;;;;5040848;28;20319;-67
2022/07/18 09:33:06;;;;;;;4.57;2.83;;;29.70;99.90;;;;;;5030403;28;20663;-67
2022/07/18 09:35:42;;;;;;;4.47;2.70;;;29.90;99.90;;;;;;5042700;28;20861;-68
2022/07/18 09:38:12;;;;;;;4.50;2.50;;;29.70;99.90;;;;;;5045621;28;20622;-68
2022/07/18 09:40:42;;;;;;;3.43;2.30;;;29.40;99.90;;;;;;5040782;28;20706;-67
2022/07/18 09:43:16;;;;;;;4.77;2.60;;;29.30;99.90;;;;;;5046593;28;20275;-68
2022/07/18 09:45:47;;;;;;;5.63;2.80;;;29.30;99.90;;;;;;5035083;28;20236;-67
2022/07/18 09:48:19;;;;;;;4.60;2.73;;;29.20;99.90;;;;;;5039243;28;20599;-68
2022/07/18 09:50:52;;;;;;;3.90;2.60;;;29.80;99.90;;;;;;5034704;28;20664;-68
2022/07/18 09:53:23;;;;;;;4.37;2.60;;;30.40;99.90;;;;;;5039915;28;20324;-68
2022/07/18 09:56:03;;;;;;;3.53;2.67;;;30.90;99.90;;;;;;5037786;28;20230;-68
2022/07/18 09:59:03;;;;;;;3.90;3.03;;;30.80;99.90;;;;;;5041752;28;20322;-68
2022/07/18 10:01:32;;;;;;;7.27;3.17;;;30.80;99.90;;;;;;5040281;28;20243;-68
2022/07/18 10:04:02;;;;;;;5.17;3.13;;;30.70;99.90;;;;;;5052007;28;20227;-69
2022/07/18 10:06:31;;;;;;;4.87;3.37;;;30.60;99.90;;;;;;5036100;28;20279;-69
2022/07/18 10:08:59;;;;;;;5.13;3.47;;;30.50;99.50;;;;;;5036214;28;20584;-68
2022/07/18 10:11:27;;;;;;;5.07;3.73;;;30.60;99.90;;;;;;5037287;28;20697;-68
2022/07/18 10:13:56;;;;;;;5.67;3.37;;;30.30;99.70;;;;;;5042136;28;20557;-69
2022/07/18 10:16:24;;;;;;;5.10;3.50;;;30.60;99.90;;;;;;5037103;28;20214;-69
2022/07/18 10:18:52;;;;;;;4.80;3.60;;;30.40;99.90;;;;;;5049289;28;20220;-69
2022/07/18 10:21:22;;;;;;;5.07;4.10;;;30.20;99.60;;;;;;5041969;28;20306;-69
2022/07/18 10:23:52;;;;;;;4.73;3.90;;;30.00;99.90;;;;;;5036366;28;20236;-69
2022/07/18 10:26:29;;;;;;;5.13;3.87;;;30.00;99.90;;;;;;5031469;28;20236;-68
2022/07/18 10:29:19;;;;;;;5.73;3.90;;;29.40;99.90;;;;;;5036438;28;20252;-69
2022/07/18 10:32:04;;;;;;;6.70;3.90;;;29.20;99.90;;;;;;5029574;28;20239;-65
2022/07/18 10:34:35;;;;;;;4.17;3.53;;;29.20;99.90;;;;;;5027450;28;20252;-68
2022/07/18 10:37:12;;;;;;;5.10;3.73;;;29.30;99.90;;;;;;5038461;28;20224;-69
2022/07/18 10:39:44;;;;;;;4.43;3.83;;;29.30;99.90;;;;;;5036381;28;20228;-68
2022/07/18 10:42:24;;;;;;;5.53;3.90;;;29.50;99.90;;;;;;5037480;28;20275;-66
2022/07/18 10:44:53;;;;;;;5.47;4.30;;;30.10;99.90;;;;;;5040088;28;20239;-67
2022/07/18 10:47:23;;;;;;;5.07;4.23;;;30.30;99.90;;;;;;5035146;28;20244;-66
2022/07/18 10:50:10;;;;;;;4.80;3.97;;;30.40;99.90;;;;;;5033486;28;20306;-68
2022/07/18 10:52:59;;;;;;;5.63;3.93;;;30.20;99.90;;;;;;5032022;28;20255;-68
2022/07/18 10:55:31;;;;;;;6.13;4.50;;;30.00;99.90;;;;;;5027111;28;20633;-68
2022/07/18 10:58:19;;;;;;;6.10;4.33;;;30.10;99.80;;;;;;5036981;28;20227;-64
2022/07/18 11:00:55;;;;;;;5.70;3.90;;;30.40;99.90;;;;;;5037628;28;20236;-68
2022/07/18 11:03:28;;;;;;;5.93;4.20;;;31.10;99.90;;;;;;5042256;28;20243;-68
2022/07/18 11:05:57;;;;;;;5.43;4.37;;;31.10;97.90;;;;;;5041014;28;20929;-68
2022/07/18 11:08:31;;;;;;;8.17;4.63;;;31.10;97.80;;;;;;5036903;28;20231;-67
2022/07/18 11:11:14;;;;;;;7.40;4.10;;;31.60;99.00;;;;;;5039757;28;20266;-67
2022/07/18 11:13:50;;;;;;;4.97;4.40;;;31.80;98.30;;;;;;5041761;28;20227;-68
2022/07/18 11:16:21;;;;;;;4.27;3.87;;;31.80;97.70;;;;;;5046338;28;20381;-69
2022/07/18 11:19:29;;;;;;;4.87;4.37;;;31.50;96.90;;;;;;5042675;28;20246;-68
2022/07/18 11:21:58;;;;;;;5.53;4.20;;;31.40;97.90;;;;;;5054010;28;20237;-68
2022/07/18 11:24:29;;;;;;;5.20;4.33;;;31.50;97.30;;;;;;5045425;28;20269;-68
2022/07/18 11:26:57;;;;;;;4.97;4.40;;;31.80;96.50;;;;;;5035941;28;20232;-68
2022/07/18 11:29:25;;;;;;;4.73;4.23;;;31.90;96.60;;;;;;5040553;28;20258;-67
2022/07/18 11:31:55;;;;;;;4.87;4.23;;;32.00;96.00;;;;;;5052290;28;20252;-68
2022/07/18 11:34:26;;;;;;;6.13;3.93;;;32.00;96.20;;;;;;5046429;28;20249;-67
2022/07/18 11:37:16;;;;;;;4.63;4.23;;;31.70;96.40;;;;;;5036681;28;20216;-68
2022/07/18 11:39:46;;;;;;;5.93;4.13;;;31.70;96.00;;;;;;5039023;28;20702;-66
2022/07/18 11:42:16;;;;;;;5.63;4.50;;;31.40;95.90;;;;;;5047360;28;20353;-69
2022/07/18 11:44:44;;;;;;;5.17;4.07;;;31.60;96.50;;;;;;5045944;28;20584;-68
2022/07/18 11:47:16;;;;;;;4.87;3.80;;;31.70;95.70;;;;;;5038501;28;20271;-67
2022/07/18 11:49:55;;;;;;;5.90;4.03;;;32.00;96.20;;;;;;5038718;28;20239;-69
2022/07/18 11:52:24;;;;;;;4.77;3.93;;;31.90;95.00;;;;;;5038550;28;20262;-69
2022/07/18 11:55:03;;;;;;;4.40;4.00;;;31.70;95.40;;;;;;5038929;28;20276;-68
2022/07/18 11:57:33;;;;;;;4.47;4.00;;;31.30;95.90;;;;;;5037687;28;20232;-68
2022/07/18 12:00:13;;;;;;;5.77;3.70;;;31.50;97.70;;;;;;5038842;28;20232;-66
2022/07/18 12:03:09;;;;;;;4.07;3.67;;;31.70;96.30;;;;;;5038166;28;20315;-68
2022/07/18 12:05:45;;;;;;;4.00;3.50;;;31.70;96.70;;;;;;5038611;28;20289;-68
2022/07/18 12:08:42;;;;;;;6.27;3.80;;;31.50;94.80;;;;;;5043539;28;20302;-68
2022/07/18 12:11:17;;;;;;;5.77;3.83;;;31.40;96.30;;;;;;5015308;28;20260;-68
2022/07/18 12:13:57;;;;;;;4.80;3.57;;;31.10;96.20;;;;;;5033871;28;20220;-68
2022/07/18 12:16:36;;;;;;;3.70;3.40;;;30.80;96.00;;;;;;5034965;28;20321;-68
2022/07/18 12:19:10;;;;;;;4.53;3.40;;;30.90;97.10;;;;;;5034796;28;20238;-67
2022/07/18 12:21:50;;;;;;;4.37;3.43;;;30.90;96.40;;;;;;5033688;28;20307;-68
2022/07/18 12:24:30;;;;;;;5.90;3.87;;;31.00;96.60;;;;;;5034989;28;20235;-68
2022/07/18 12:27:35;;;;;;;4.57;3.87;;;31.00;96.70;;;;;;5033777;28;20235;-68
2022/07/18 12:30:09;;;;;;;4.30;3.57;;;31.10;96.30;;;;;;5013188;28;20298;-68
2022/07/18 12:32:43;;;;;;;7.70;3.70;;;31.10;96.10;;;;;;5034214;28;20230;-68
2022/07/18 12:35:13;;;;;;;5.30;3.97;;;31.10;96.30;;;;;;5035345;28;20232;-68
2022/07/18 12:37:42;;;;;;;6.90;4.07;;;31.00;94.60;;;;;;5034942;28;20251;-68
2022/07/18 12:40:13;;;;;;;4.83;3.90;;;30.80;94.90;;;;;;5035349;28;20238;-68
2022/07/18 12:43:05;;;;;;;5.97;3.67;;;30.70;95.40;;;;;;5043328;28;20218;-68
2022/07/18 12:45:35;;;;;;;4.50;4.10;;;30.50;96.00;;;;;;5034867;28;20735;-68
2022/07/18 12:48:05;;;;;;;6.93;3.97;;;30.40;96.00;;;;;;5034868;28;20320;-68
2022/07/18 12:50:33;;;;;;;4.70;3.70;;;30.40;95.20;;;;;;5034600;28;20251;-69
2022/07/18 12:53:01;;;;;;;4.37;3.77;;;30.30;96.00;;;;;;5034570;28;20234;-67
2022/07/18 12:55:29;;;;;;;6.37;4.20;;;30.10;94.40;;;;;;5034758;28;20230;-67
2022/07/18 12:58:00;;;;;;;4.70;3.83;;;30.00;96.00;;;;;;5032890;28;20226;-68
2022/07/18 13:00:31;;;;;;;4.80;4.00;;;30.20;96.30;;;;;;5036074;28;20271;-67
2022/07/18 13:03:00;;;;;;;5.47;3.93;;;30.30;94.90;;;;;;5047845;28;20257;-68
2022/07/18 13:05:30;;;;;;;6.03;3.77;;;30.40;95.30;;;;;;5034659;28;20229;-68
2022/07/18 13:07:59;;;;;;;7.77;3.90;;;30.30;95.90;;;;;;5044685;28;20755;-68
2022/07/18 13:10:27;;;;;;;5.37;4.20;;;30.40;95.60;;;;;;5054536;28;20236;-68